Time;durP1;ratioP1;P1;durP2;ratioP2;P2;SDS_P1;SDS_P2;PMS_P1;PMS_P2;Temp;Humidity;BMP_temperature;BMP_pressure;BME280_temperature;BME280_humidity;BME280_pressure;Samples;Min_cycle;Max_cycle;Signal;HPM_P1;HPM_P2
2023/10/07 00:02:14;;;;;;;15.95;3.80;;;17.80;65.30;;;;;;5069456;28;20901;-72
2023/10/07 00:04:41;;;;;;;13.47;3.47;;;17.80;64.90;;;;;;5069730;28;20431;-72
2023/10/07 00:07:10;;;;;;;11.93;3.53;;;17.70;65.10;;;;;;5069889;28;20758;-72
2023/10/07 00:09:43;;;;;;;14.88;3.60;;;17.80;65.10;;;;;;5069688;28;20465;-73
2023/10/07 00:12:14;;;;;;;15.40;3.70;;;17.70;65.30;;;;;;5069684;28;20400;-72
2023/10/07 00:14:41;;;;;;;17.25;4.28;;;17.70;66.00;;;;;;5069135;28;20407;-72
2023/10/07 00:17:18;;;;;;;13.20;4.03;;;17.70;66.20;;;;;;5069412;28;20423;-72
2023/10/07 00:19:46;;;;;;;13.15;4.13;;;17.70;66.70;;;;;;5069473;28;20434;-72
2023/10/07 00:22:14;;;;;;;15.50;3.60;;;17.70;66.70;;;;;;5067847;28;20443;-72
2023/10/07 00:24:45;;;;;;;14.07;3.72;;;17.70;67.10;;;;;;5067665;28;20511;-72
2023/10/07 00:27:26;;;;;;;13.73;3.80;;;17.70;67.30;;;;;;5068821;28;20473;-73
2023/10/07 00:29:54;;;;;;;16.43;3.90;;;17.70;67.80;;;;;;5066872;28;20403;-72
2023/10/07 00:32:26;;;;;;;16.52;4.43;;;17.70;68.50;;;;;;5068837;28;20916;-72
2023/10/07 00:34:55;;;;;;;16.23;4.22;;;17.70;69.00;;;;;;5069429;28;20435;-72
2023/10/07 00:37:20;;;;;;;17.27;4.80;;;17.60;69.90;;;;;;5068748;28;20408;-73
2023/10/07 00:39:46;;;;;;;16.60;4.38;;;17.50;71.50;;;;;;5068911;28;20400;-72
2023/10/07 00:42:12;;;;;;;15.30;4.77;;;17.50;72.70;;;;;;5068823;28;20851;-72
2023/10/07 00:44:39;;;;;;;13.67;4.10;;;17.40;74.30;;;;;;5069004;28;20431;-73
2023/10/07 00:49:43;;;;;;;18.50;5.13;;;17.40;75.80;;;;;;5067891;28;20465;-72
2023/10/07 00:52:12;;;;;;;17.38;4.65;;;17.30;75.90;;;;;;5066557;28;20408;-70
2023/10/07 00:54:50;;;;;;;16.77;4.72;;;17.30;77.00;;;;;;5068312;28;20408;-72
2023/10/07 00:57:29;;;;;;;13.82;4.68;;;17.30;77.10;;;;;;5068280;28;20418;-71
2023/10/07 00:59:57;;;;;;;17.30;4.57;;;17.30;77.80;;;;;;5067924;28;20935;-71
2023/10/07 01:02:30;;;;;;;18.85;4.63;;;17.20;79.00;;;;;;5066736;28;20766;-71
2023/10/07 01:05:06;;;;;;;16.60;4.30;;;17.20;80.40;;;;;;5067878;28;20868;-72
2023/10/07 01:07:34;;;;;;;17.13;4.40;;;17.20;80.80;;;;;;5065362;28;20416;-71
2023/10/07 01:12:37;;;;;;;15.73;4.70;;;17.20;81.60;;;;;;5067505;28;20419;-70
2023/10/07 01:15:05;;;;;;;14.45;4.50;;;17.20;82.90;;;;;;5066965;28;20769;-70
2023/10/07 01:17:31;;;;;;;15.82;4.43;;;17.20;82.80;;;;;;5067426;28;20492;-71
2023/10/07 01:19:57;;;;;;;17.07;4.40;;;17.20;82.80;;;;;;5066540;28;20617;-71
2023/10/07 01:22:35;;;;;;;13.77;4.80;;;17.20;84.00;;;;;;5067473;28;20460;-71
2023/10/07 01:25:06;;;;;;;13.77;4.38;;;17.20;84.80;;;;;;5067653;28;20465;-71
2023/10/07 01:27:41;;;;;;;13.77;4.75;;;17.20;84.60;;;;;;5065746;28;20546;-71
2023/10/07 01:30:15;;;;;;;16.00;4.75;;;17.20;84.80;;;;;;5067113;28;20744;-71
2023/10/07 01:33:09;;;;;;;14.35;4.80;;;17.10;86.10;;;;;;5045962;28;20458;-71
2023/10/07 01:35:39;;;;;;;17.92;4.68;;;17.10;86.70;;;;;;5060410;28;20397;-71
2023/10/07 01:38:08;;;;;;;14.68;5.18;;;17.10;87.30;;;;;;5067085;28;20917;-71
2023/10/07 01:43:16;;;;;;;15.30;5.50;;;17.10;87.60;;;;;;5058252;28;20778;-72
2023/10/07 01:45:41;;;;;;;16.38;5.85;;;17.10;87.90;;;;;;5066835;28;20400;-71
2023/10/07 01:48:07;;;;;;;16.00;5.18;;;17.10;88.40;;;;;;5066964;28;20400;-71
2023/10/07 01:50:40;;;;;;;18.27;5.03;;;17.10;89.40;;;;;;5067545;28;20465;-71
2023/10/07 01:53:07;;;;;;;16.15;4.75;;;17.10;89.50;;;;;;5066479;28;20407;-71
2023/10/07 01:55:36;;;;;;;16.38;4.65;;;17.10;88.30;;;;;;5067555;28;20400;-71
2023/10/07 01:58:02;;;;;;;14.20;4.22;;;17.10;89.60;;;;;;5059555;28;20424;-71
2023/10/07 02:03:13;;;;;;;18.73;4.35;;;17.10;90.00;;;;;;5067604;28;20979;-71
2023/10/07 02:05:40;;;;;;;15.40;4.38;;;17.20;90.40;;;;;;5066096;28;20481;-71
2023/10/07 02:08:20;;;;;;;16.60;4.28;;;17.20;90.30;;;;;;5062455;28;20434;-71
2023/10/07 02:10:47;;;;;;;14.40;3.65;;;17.20;90.30;;;;;;5066998;28;20541;-71
2023/10/07 02:13:18;;;;;;;17.97;4.47;;;17.20;90.10;;;;;;5067596;28;20392;-71
2023/10/07 02:15:44;;;;;;;17.50;4.70;;;17.20;90.20;;;;;;5057752;28;21030;-71
2023/10/07 02:18:17;;;;;;;12.60;3.53;;;17.30;90.10;;;;;;5067322;28;20491;-71
2023/10/07 02:20:49;;;;;;;14.35;3.63;;;17.30;90.20;;;;;;5067364;28;20403;-71
2023/10/07 02:24:05;;;;;;;17.90;3.90;;;17.30;90.20;;;;;;5067147;28;20459;-71
2023/10/07 02:26:16;;;;;;;16.98;3.60;;;17.30;90.30;;;;;;5051434;28;20423;-71
2023/10/07 02:28:43;;;;;;;13.73;3.63;;;17.30;90.00;;;;;;5066934;28;20395;-71
2023/10/07 02:31:17;;;;;;;12.75;3.88;;;17.40;90.00;;;;;;5067401;28;20403;-71
2023/10/07 02:33:45;;;;;;;12.55;3.38;;;17.40;89.80;;;;;;5067319;28;20407;-73
2023/10/07 02:36:28;;;;;;;16.98;3.55;;;17.40;89.80;;;;;;5066942;28;20902;-74
2023/10/07 02:39:02;;;;;;;14.85;3.58;;;17.40;89.70;;;;;;5064764;28;20415;-74
2023/10/07 02:41:30;;;;;;;12.05;3.40;;;17.50;88.60;;;;;;5058843;28;20408;-73
2023/10/07 02:44:03;;;;;;;15.00;3.33;;;17.50;88.80;;;;;;5066911;28;20423;-73
2023/10/07 02:46:35;;;;;;;12.75;3.45;;;17.50;88.60;;;;;;5069117;28;20913;-73
2023/10/07 02:49:10;;;;;;;13.18;3.42;;;17.50;88.20;;;;;;5071244;28;20406;-74
2023/10/07 02:51:46;;;;;;;13.15;3.25;;;17.50;87.90;;;;;;5070020;28;20412;-73
2023/10/07 02:54:17;;;;;;;14.85;3.40;;;17.50;87.80;;;;;;5071096;28;20498;-73
2023/10/07 02:56:54;;;;;;;14.50;3.35;;;17.50;87.60;;;;;;5071432;28;20411;-73
2023/10/07 02:59:27;;;;;;;16.13;3.80;;;17.50;87.10;;;;;;5071068;28;20416;-74
2023/10/07 03:05:14;;;;;;;13.80;3.30;;;17.60;87.30;;;;;;5069532;28;20434;-73
2023/10/07 03:07:49;;;;;;;14.23;3.58;;;17.60;87.60;;;;;;5069261;28;20464;-73
2023/10/07 03:10:18;;;;;;;12.63;3.58;;;17.60;86.70;;;;;;5070969;28;20400;-73
2023/10/07 03:12:49;;;;;;;14.38;3.50;;;17.60;86.40;;;;;;5065448;28;20407;-73
2023/10/07 03:15:28;;;;;;;17.55;3.63;;;17.60;86.20;;;;;;5070446;28;20503;-73
2023/10/07 03:17:54;;;;;;;13.85;3.13;;;17.60;86.20;;;;;;5070598;28;20450;-71
2023/10/07 03:25:47;;;;;;;17.27;4.00;;;17.60;86.10;;;;;;5070572;28;21288;-74
2023/10/07 03:28:18;;;;;;;15.88;3.65;;;17.60;85.80;;;;;;5070494;28;20996;-74
2023/10/07 03:30:57;;;;;;;11.85;3.03;;;17.60;85.80;;;;;;5069321;28;20412;-74
2023/10/07 03:41:59;;;;;;;18.80;4.50;;;17.60;85.40;;;;;;5026878;28;20521;-70
2023/10/07 03:44:25;;;;;;;13.98;3.65;;;17.60;85.30;;;;;;5052984;28;20436;-73
2023/10/07 03:46:57;;;;;;;15.30;3.45;;;17.60;85.50;;;;;;5052278;28;20423;-74
2023/10/07 03:49:23;;;;;;;12.95;3.30;;;17.60;85.30;;;;;;5068473;28;20492;-71
2023/10/07 03:51:59;;;;;;;15.25;3.33;;;17.60;85.20;;;;;;5070373;28;20410;-73
2023/10/07 03:54:29;;;;;;;15.33;3.37;;;17.60;85.10;;;;;;5069577;28;20400;-74
2023/10/07 03:56:56;;;;;;;13.77;3.33;;;17.60;85.10;;;;;;5069950;28;20782;-74
2023/10/07 03:59:22;;;;;;;14.18;3.80;;;17.60;85.00;;;;;;5069790;28;20800;-73
2023/10/07 04:01:53;;;;;;;13.95;3.40;;;17.60;85.00;;;;;;5069870;28;20450;-73
2023/10/07 04:04:22;;;;;;;13.67;3.63;;;17.60;85.20;;;;;;5069674;28;20794;-73
2023/10/07 04:06:48;;;;;;;14.45;3.72;;;17.60;85.10;;;;;;5060541;28;20892;-73
2023/10/07 04:09:14;;;;;;;15.60;3.90;;;17.60;85.30;;;;;;5069746;28;20996;-73
2023/10/07 04:11:49;;;;;;;13.43;3.38;;;17.60;85.00;;;;;;5070109;28;20438;-73
2023/10/07 04:14:19;;;;;;;14.93;3.90;;;17.60;85.20;;;;;;5069308;28;20457;-73
2023/10/07 04:16:48;;;;;;;15.02;3.45;;;17.60;85.00;;;;;;5068518;28;20419;-73
2023/10/07 04:21:42;;;;;;;14.98;3.55;;;17.60;85.20;;;;;;5069815;28;20476;-73
2023/10/07 04:24:10;;;;;;;17.30;4.00;;;17.60;85.00;;;;;;5069152;28;20419;-74
2023/10/07 04:26:54;;;;;;;16.20;3.53;;;17.60;84.90;;;;;;5069318;28;20947;-73
2023/10/07 04:29:24;;;;;;;15.48;3.60;;;17.60;84.90;;;;;;5068285;28;20399;-73
2023/10/07 04:31:52;;;;;;;10.98;3.38;;;17.60;85.10;;;;;;5069332;28;20408;-73
2023/10/07 04:34:19;;;;;;;15.57;3.75;;;17.60;84.80;;;;;;5068739;28;20403;-73
2023/10/07 04:39:31;;;;;;;16.23;3.78;;;17.60;85.10;;;;;;5062331;28;20396;-73
2023/10/07 04:42:03;;;;;;;15.27;3.83;;;17.60;85.30;;;;;;5068968;28;20485;-73
2023/10/07 04:52:33;;;;;;;16.40;3.50;;;17.60;84.70;;;;;;5069182;28;20495;-73
2023/10/07 04:55:01;;;;;;;19.25;4.28;;;17.60;84.80;;;;;;5064659;28;20479;-73
2023/10/07 05:00:37;;;;;;;13.23;3.60;;;17.60;85.10;;;;;;5068765;28;20408;-73
2023/10/07 05:03:15;;;;;;;14.77;3.57;;;17.60;84.90;;;;;;5064653;28;21347;-70
2023/10/07 05:05:45;;;;;;;16.80;3.80;;;17.50;85.10;;;;;;5067907;28;20400;-70
2023/10/07 05:08:17;;;;;;;15.18;3.67;;;17.50;84.70;;;;;;5067771;28;20478;-73
2023/10/07 05:10:53;;;;;;;14.75;3.88;;;17.50;85.20;;;;;;5065729;28;21017;-73
2023/10/07 05:13:19;;;;;;;15.82;4.00;;;17.50;85.50;;;;;;5068365;28;20444;-73
2023/10/07 05:15:45;;;;;;;13.82;3.75;;;17.50;85.30;;;;;;5068620;28;20404;-73
2023/10/07 05:18:13;;;;;;;12.13;3.50;;;17.50;85.90;;;;;;5043376;28;20409;-73
2023/10/07 05:20:41;;;;;;;15.10;3.55;;;17.50;86.10;;;;;;5066078;28;20404;-73
2023/10/07 05:23:07;;;;;;;12.80;3.80;;;17.50;86.00;;;;;;5069003;28;20423;-70
2023/10/07 05:25:37;;;;;;;13.37;3.63;;;17.50;85.80;;;;;;5068158;28;20526;-70
2023/10/07 05:28:11;;;;;;;16.75;3.97;;;17.50;85.80;;;;;;5068465;28;20400;-73
2023/10/07 05:30:50;;;;;;;14.15;3.85;;;17.50;86.00;;;;;;5064357;28;20439;-73
2023/10/07 05:33:27;;;;;;;14.57;3.87;;;17.40;86.30;;;;;;5067911;28;20424;-73
2023/10/07 05:35:59;;;;;;;14.10;3.55;;;17.50;86.30;;;;;;5068437;28;20404;-73
2023/10/07 05:38:25;;;;;;;10.70;3.33;;;17.40;86.40;;;;;;5067878;28;20902;-73
2023/10/07 05:41:00;;;;;;;16.85;4.50;;;17.40;86.50;;;;;;5050534;28;20495;-73
2023/10/07 05:43:25;;;;;;;13.68;3.50;;;17.40;86.70;;;;;;5063747;28;20439;-73
2023/10/07 05:45:52;;;;;;;14.50;3.40;;;17.40;86.80;;;;;;5068136;28;20786;-73
2023/10/07 05:48:17;;;;;;;15.88;3.80;;;17.50;86.90;;;;;;5066138;28;20415;-70
2023/10/07 05:50:43;;;;;;;16.60;4.00;;;17.40;86.40;;;;;;5068473;28;20403;-71
2023/10/07 05:53:09;;;;;;;16.13;3.73;;;17.50;86.40;;;;;;5067948;28;20404;-73
2023/10/07 05:55:36;;;;;;;14.73;3.97;;;17.50;86.50;;;;;;5067497;28;20410;-73
2023/10/07 05:58:02;;;;;;;12.30;3.30;;;17.50;86.30;;;;;;5067765;28;20424;-73
2023/10/07 06:00:31;;;;;;;13.63;3.88;;;17.50;86.40;;;;;;5068115;28;20410;-73
2023/10/07 06:03:02;;;;;;;15.85;3.63;;;17.50;86.60;;;;;;5067769;28;20406;-73
2023/10/07 06:05:29;;;;;;;13.95;3.72;;;17.50;86.30;;;;;;5067039;28;20411;-71
2023/10/07 06:07:57;;;;;;;14.70;3.85;;;17.50;86.40;;;;;;5068064;28;20408;-72
2023/10/07 06:10:24;;;;;;;13.93;3.72;;;17.50;86.40;;;;;;5067583;28;20400;-70
2023/10/07 06:12:53;;;;;;;15.15;3.95;;;17.50;86.30;;;;;;5067447;28;20731;-71
2023/10/07 06:15:19;;;;;;;12.93;3.50;;;17.50;86.50;;;;;;5067606;28;20406;-70
2023/10/07 06:17:45;;;;;;;13.50;3.67;;;17.50;86.50;;;;;;5067310;28;20913;-71
2023/10/07 06:20:17;;;;;;;12.23;3.83;;;17.40;86.70;;;;;;5066948;28;20511;-71
2023/10/07 06:22:48;;;;;;;13.63;4.05;;;17.40;87.20;;;;;;5067484;28;20969;-71
2023/10/07 06:25:15;;;;;;;12.82;4.45;;;17.40;87.20;;;;;;5048036;28;20465;-72
2023/10/07 06:27:45;;;;;;;13.80;3.90;;;17.40;87.20;;;;;;5065264;28;20411;-72
2023/10/07 06:30:20;;;;;;;13.98;3.83;;;17.30;87.40;;;;;;5059312;28;20445;-72
2023/10/07 06:32:54;;;;;;;14.05;3.92;;;17.30;87.50;;;;;;5064909;28;20775;-72
2023/10/07 06:35:25;;;;;;;15.73;4.13;;;17.30;87.70;;;;;;5065938;28;20901;-72
2023/10/07 06:37:57;;;;;;;18.90;4.78;;;17.30;87.90;;;;;;5058362;28;20445;-73
2023/10/07 06:40:28;;;;;;;12.85;4.18;;;17.30;88.40;;;;;;5062591;28;20557;-73
2023/10/07 06:42:56;;;;;;;15.32;4.20;;;17.20;88.40;;;;;;5057945;28;20405;-74
2023/10/07 06:45:44;;;;;;;16.55;4.00;;;17.20;88.90;;;;;;5066295;28;20399;-73
2023/10/07 06:48:11;;;;;;;13.80;4.30;;;17.20;89.00;;;;;;5060764;28;20400;-73
2023/10/07 06:50:41;;;;;;;15.67;3.97;;;17.20;89.50;;;;;;5062362;28;20830;-74
2023/10/07 06:53:11;;;;;;;12.75;3.97;;;17.20;90.00;;;;;;5078937;28;20446;-74
2023/10/07 06:55:44;;;;;;;15.90;3.72;;;17.10;90.10;;;;;;5064013;28;20412;-74
2023/10/07 06:58:11;;;;;;;12.23;3.42;;;17.10;90.20;;;;;;5065159;28;21449;-74
2023/10/07 07:01:09;;;;;;;14.07;3.40;;;17.10;90.30;;;;;;5055510;28;20429;-73
2023/10/07 07:03:25;;;;;;;15.27;4.10;;;17.10;90.40;;;;;;5064589;28;20428;-74
2023/10/07 07:05:52;;;;;;;14.02;4.00;;;17.10;90.60;;;;;;5064481;28;20404;-72
2023/10/07 07:08:24;;;;;;;15.15;3.67;;;17.10;90.80;;;;;;5056972;28;20938;-73
2023/10/07 07:10:55;;;;;;;14.98;4.07;;;17.10;90.80;;;;;;5058530;28;20926;-73
2023/10/07 07:13:27;;;;;;;15.35;4.07;;;17.10;90.90;;;;;;5040625;28;20408;-74
2023/10/07 07:15:57;;;;;;;14.57;3.70;;;17.10;91.00;;;;;;5065784;28;20777;-74
2023/10/07 07:18:25;;;;;;;14.75;3.58;;;17.10;91.00;;;;;;5058584;28;20407;-73
2023/10/07 07:21:00;;;;;;;14.63;3.90;;;17.10;91.10;;;;;;5063463;28;20457;-74
2023/10/07 07:23:40;;;;;;;15.50;4.10;;;17.10;91.10;;;;;;5065403;28;20468;-74
2023/10/07 07:26:10;;;;;;;12.88;3.65;;;17.10;91.20;;;;;;5061790;28;20428;-73
2023/10/07 07:28:42;;;;;;;14.05;4.05;;;17.10;91.30;;;;;;5066997;28;20408;-73
2023/10/07 07:31:11;;;;;;;15.07;3.55;;;17.10;91.20;;;;;;5066953;28;20845;-73
2023/10/07 07:33:37;;;;;;;14.68;3.50;;;17.10;91.00;;;;;;5068945;28;20477;-73
2023/10/07 07:36:24;;;;;;;12.32;3.17;;;17.10;91.00;;;;;;5070654;28;20400;-73
2023/10/07 07:38:52;;;;;;;11.15;3.35;;;17.20;91.20;;;;;;5067554;28;20404;-73
2023/10/07 07:41:29;;;;;;;13.93;3.30;;;17.20;91.00;;;;;;5068735;28;20979;-74
2023/10/07 07:43:58;;;;;;;12.93;3.20;;;17.20;91.20;;;;;;5069013;28;20552;-73
2023/10/07 07:46:26;;;;;;;11.90;3.10;;;17.20;91.00;;;;;;5061204;28;20412;-73
2023/10/07 07:48:56;;;;;;;13.15;2.88;;;17.10;91.10;;;;;;5069419;28;20419;-74
2023/10/07 07:51:24;;;;;;;12.95;3.03;;;17.20;91.20;;;;;;5069839;28;20404;-73
2023/10/07 07:53:51;;;;;;;13.23;3.17;;;17.10;91.20;;;;;;5070551;28;20533;-73
2023/10/07 07:56:18;;;;;;;14.70;3.63;;;17.20;91.50;;;;;;5070034;28;20411;-74
2023/10/07 07:58:47;;;;;;;13.50;3.17;;;17.20;91.30;;;;;;5044357;28;20411;-73
2023/10/07 08:01:23;;;;;;;12.00;3.30;;;17.20;91.20;;;;;;5070180;28;20404;-74
2023/10/07 08:03:48;;;;;;;11.07;2.95;;;17.20;91.20;;;;;;5070513;28;20431;-73
2023/10/07 08:06:20;;;;;;;12.13;3.33;;;17.20;91.10;;;;;;5068710;28;20784;-74
2023/10/07 08:08:47;;;;;;;10.43;2.83;;;17.20;91.10;;;;;;5070201;28;20483;-73
2023/10/07 08:11:17;;;;;;;10.32;3.13;;;17.20;91.10;;;;;;5066448;28;20399;-73
2023/10/07 08:13:54;;;;;;;11.88;3.15;;;17.20;91.10;;;;;;5069592;28;20403;-74
2023/10/07 08:16:20;;;;;;;10.98;3.00;;;17.30;90.80;;;;;;5070066;28;21046;-74
2023/10/07 08:18:50;;;;;;;10.37;3.30;;;17.30;90.90;;;;;;5068383;28;20490;-73
2023/10/07 08:21:16;;;;;;;12.57;3.15;;;17.30;90.70;;;;;;5069925;28;20897;-73
2023/10/07 08:23:51;;;;;;;13.38;2.95;;;17.30;90.90;;;;;;5070023;28;20431;-73
2023/10/07 08:26:23;;;;;;;10.68;2.90;;;17.30;90.50;;;;;;5069843;28;20408;-73
2023/10/07 08:31:37;;;;;;;10.82;2.90;;;17.40;90.40;;;;;;5069201;28;20411;-73
2023/10/07 08:36:34;;;;;;;12.30;3.33;;;17.50;90.20;;;;;;5061036;28;20480;-71
2023/10/07 08:39:05;;;;;;;12.50;3.00;;;17.60;89.80;;;;;;5068228;28;20395;-71
2023/10/07 08:41:31;;;;;;;15.25;3.20;;;17.60;89.30;;;;;;5068062;28;20845;-71
2023/10/07 08:44:17;;;;;;;12.48;3.33;;;17.70;88.70;;;;;;5068940;28;20458;-71
2023/10/07 08:46:52;;;;;;;10.93;3.03;;;17.80;88.40;;;;;;5066811;28;20420;-71
2023/10/07 08:49:25;;;;;;;11.00;2.88;;;17.80;87.80;;;;;;5068927;28;20412;-71
2023/10/07 08:51:56;;;;;;;11.53;3.10;;;17.80;86.60;;;;;;5063701;28;20473;-71
2023/10/07 08:54:31;;;;;;;12.90;3.10;;;17.90;85.50;;;;;;5050358;28;20932;-71
2023/10/07 08:57:14;;;;;;;11.07;2.90;;;17.80;84.90;;;;;;5068616;28;20921;-71
2023/10/07 08:59:42;;;;;;;11.80;2.85;;;17.90;83.50;;;;;;5068790;28;20442;-71
2023/10/07 09:02:17;;;;;;;15.57;3.38;;;17.90;82.20;;;;;;5065893;28;20404;-70
2023/10/07 09:04:42;;;;;;;12.15;3.30;;;18.00;81.10;;;;;;5064701;28;20419;-70
2023/10/07 09:07:08;;;;;;;10.83;3.03;;;18.00;79.70;;;;;;5068381;28;20411;-70
2023/10/07 09:09:38;;;;;;;12.05;3.53;;;18.00;79.10;;;;;;5080607;28;20417;-70
2023/10/07 09:12:28;;;;;;;12.60;3.47;;;18.00;77.40;;;;;;5062118;28;20446;-70
2023/10/07 09:14:57;;;;;;;11.32;3.00;;;18.10;76.70;;;;;;5067949;28;20404;-70
2023/10/07 09:17:26;;;;;;;10.82;2.95;;;18.10;75.70;;;;;;5067378;28;20427;-71
2023/10/07 09:19:58;;;;;;;12.85;3.28;;;18.10;75.00;;;;;;5066484;28;20412;-71
2023/10/07 09:22:33;;;;;;;12.07;2.95;;;18.10;74.40;;;;;;5068147;28;20412;-71
2023/10/07 09:25:17;;;;;;;12.10;3.10;;;18.10;73.40;;;;;;5068185;28;20519;-71
2023/10/07 09:27:55;;;;;;;15.43;3.28;;;18.20;72.90;;;;;;5068081;28;20431;-71
2023/10/07 09:33:17;;;;;;;11.57;2.97;;;18.20;72.90;;;;;;5064709;28;20451;-71
2023/10/07 09:38:44;;;;;;;14.75;3.20;;;18.20;71.40;;;;;;5068338;28;20462;-71
2023/10/07 09:41:23;;;;;;;12.05;3.58;;;18.20;70.20;;;;;;5067318;28;20451;-71
2023/10/07 09:43:56;;;;;;;12.18;3.10;;;18.20;70.00;;;;;;5066345;28;20435;-71
2023/10/07 09:46:27;;;;;;;12.30;3.20;;;18.10;69.40;;;;;;5067408;28;20403;-71
2023/10/07 09:48:54;;;;;;;13.25;3.75;;;18.10;70.20;;;;;;5067814;28;20446;-72
2023/10/07 09:51:28;;;;;;;14.05;3.55;;;18.10;70.30;;;;;;5067784;28;20435;-71
2023/10/07 09:54:16;;;;;;;12.43;3.40;;;18.00;69.80;;;;;;5067813;28;20412;-71
2023/10/07 09:56:59;;;;;;;13.23;3.53;;;18.10;70.40;;;;;;5064988;28;20407;-71
2023/10/07 09:59:51;;;;;;;13.60;3.50;;;18.00;69.30;;;;;;5066453;28;20426;-71
2023/10/07 10:02:32;;;;;;;14.48;3.75;;;18.10;68.60;;;;;;5063325;28;20523;-71
2023/10/07 10:05:25;;;;;;;14.43;3.50;;;18.10;68.80;;;;;;5067577;28;20428;-71
2023/10/07 10:08:11;;;;;;;12.75;3.58;;;18.10;67.40;;;;;;5057214;28;20477;-71
2023/10/07 10:10:45;;;;;;;15.07;3.72;;;18.10;67.20;;;;;;5067524;28;20411;-71
2023/10/07 10:13:51;;;;;;;13.63;3.90;;;18.10;67.30;;;;;;5065803;28;20404;-71
2023/10/07 10:16:18;;;;;;;13.32;3.80;;;18.10;63.80;;;;;;5067641;28;20749;-71
2023/10/07 10:18:50;;;;;;;13.30;4.07;;;18.10;63.50;;;;;;5067331;28;20772;-71
2023/10/07 10:21:22;;;;;;;12.15;4.35;;;18.20;63.10;;;;;;5066070;28;20794;-71
2023/10/07 10:23:51;;;;;;;13.35;3.80;;;18.20;62.40;;;;;;5067167;28;20908;-71
2023/10/07 10:26:21;;;;;;;13.20;3.42;;;18.20;62.10;;;;;;5067731;28;20396;-69
2023/10/07 10:29:00;;;;;;;16.10;3.80;;;18.10;57.90;;;;;;5066950;28;20418;-70
2023/10/07 10:31:34;;;;;;;16.40;4.10;;;18.20;55.50;;;;;;5064496;28;20435;-71
2023/10/07 10:34:08;;;;;;;14.85;3.67;;;18.30;57.20;;;;;;5067798;28;20789;-71
2023/10/07 10:36:43;;;;;;;13.68;3.60;;;18.30;56.90;;;;;;5049254;28;20781;-71
2023/10/07 10:39:31;;;;;;;14.02;3.70;;;18.40;52.70;;;;;;5066956;28;20426;-71
2023/10/07 10:42:02;;;;;;;15.63;4.07;;;18.40;51.40;;;;;;5059716;28;20422;-71
2023/10/07 10:44:38;;;;;;;15.00;3.70;;;18.60;53.70;;;;;;5067277;28;20514;-71
2023/10/07 10:47:04;;;;;;;13.80;3.70;;;18.70;52.10;;;;;;5066786;28;20426;-72
2023/10/07 10:49:30;;;;;;;13.00;3.53;;;18.90;49.00;;;;;;5066842;28;20396;-72
2023/10/07 10:51:59;;;;;;;13.47;3.83;;;18.90;46.00;;;;;;5065702;28;20443;-71
2023/10/07 10:54:25;;;;;;;13.73;4.00;;;19.00;44.90;;;;;;5066511;28;20914;-70
2023/10/07 10:56:55;;;;;;;13.43;3.80;;;19.10;40.20;;;;;;5065782;28;20400;-71
2023/10/07 10:59:35;;;;;;;15.90;3.70;;;19.10;39.80;;;;;;5067221;28;20407;-71
2023/10/07 11:02:01;;;;;;;13.67;3.50;;;19.20;39.80;;;;;;5060007;28;20396;-71
2023/10/07 11:04:29;;;;;;;13.13;3.42;;;19.20;41.10;;;;;;5065267;28;20430;-71
2023/10/07 11:06:55;;;;;;;13.32;4.15;;;19.20;41.60;;;;;;5060121;28;20522;-71
2023/10/07 11:09:34;;;;;;;14.77;4.10;;;19.10;36.10;;;;;;5070034;28;20491;-71
2023/10/07 11:12:08;;;;;;;15.38;3.67;;;19.10;34.80;;;;;;5063691;28;20411;-71
2023/10/07 11:14:41;;;;;;;14.43;3.73;;;19.00;34.60;;;;;;5070816;28;20838;-71
2023/10/07 11:17:12;;;;;;;13.55;4.22;;;19.00;36.50;;;;;;5070937;28;20406;-71
2023/10/07 11:19:51;;;;;;;12.27;3.90;;;19.00;39.00;;;;;;5070602;28;20422;-71
2023/10/07 11:22:21;;;;;;;14.02;4.30;;;18.90;38.30;;;;;;5070314;28;20543;-71
2023/10/07 11:24:50;;;;;;;12.43;3.83;;;18.80;38.30;;;;;;5067742;28;20430;-71
2023/10/07 11:27:17;;;;;;;14.65;4.05;;;18.70;36.50;;;;;;5070454;28;20743;-71
2023/10/07 11:29:43;;;;;;;14.02;3.95;;;18.70;37.60;;;;;;5070698;28;20408;-71
2023/10/07 11:32:10;;;;;;;11.30;3.53;;;18.60;40.00;;;;;;5070567;28;20406;-71
2023/10/07 11:34:38;;;;;;;12.82;4.15;;;18.60;41.30;;;;;;5069167;28;20510;-70
2023/10/07 11:37:11;;;;;;;14.93;4.28;;;18.60;41.80;;;;;;5068688;28;20497;-72
2023/10/07 11:39:45;;;;;;;13.55;4.13;;;18.60;42.60;;;;;;5068957;28;20412;-72
2023/10/07 11:42:16;;;;;;;13.13;4.00;;;18.50;42.80;;;;;;5070123;28;20407;-71
2023/10/07 11:44:46;;;;;;;16.33;4.32;;;18.50;42.20;;;;;;5070232;28;21165;-71
2023/10/07 11:47:15;;;;;;;15.63;4.25;;;18.50;42.20;;;;;;5070306;28;20829;-71
2023/10/07 11:49:41;;;;;;;17.33;4.50;;;18.40;42.40;;;;;;5070587;28;20404;-72
2023/10/07 11:52:06;;;;;;;13.83;4.00;;;18.40;42.60;;;;;;5070132;28;20430;-72
2023/10/07 11:54:37;;;;;;;13.63;3.67;;;18.40;43.20;;;;;;5069950;28;20438;-72
2023/10/07 11:57:05;;;;;;;15.25;4.07;;;18.40;43.70;;;;;;5063509;28;20487;-72
2023/10/07 11:59:33;;;;;;;11.90;3.90;;;18.40;43.80;;;;;;5070007;28;20755;-72
2023/10/07 12:02:00;;;;;;;18.02;4.30;;;18.40;44.70;;;;;;5070504;28;20490;-72
2023/10/07 12:04:26;;;;;;;17.00;4.50;;;18.30;44.50;;;;;;5068946;28;20427;-72
2023/10/07 12:06:53;;;;;;;17.30;5.10;;;18.30;44.40;;;;;;5070406;28;20400;-72
2023/10/07 12:09:23;;;;;;;11.77;3.40;;;18.30;45.10;;;;;;5069199;28;20557;-71
2023/10/07 12:11:53;;;;;;;12.10;4.00;;;18.30;46.20;;;;;;5070208;28;20905;-71
2023/10/07 12:14:20;;;;;;;14.90;3.95;;;18.30;45.20;;;;;;5083920;28;20905;-71
2023/10/07 12:16:46;;;;;;;13.57;4.45;;;18.30;45.40;;;;;;5068296;28;20450;-71
2023/10/07 12:19:12;;;;;;;16.30;4.07;;;18.30;46.20;;;;;;5068958;28;20447;-72
2023/10/07 12:21:39;;;;;;;15.23;4.15;;;18.30;45.80;;;;;;5067776;28;20446;-72
2023/10/07 12:24:06;;;;;;;15.80;3.88;;;18.30;45.80;;;;;;5069068;28;20434;-72
2023/10/07 12:26:31;;;;;;;13.25;4.03;;;18.30;45.30;;;;;;5069661;28;20975;-72
2023/10/07 12:28:58;;;;;;;14.68;4.07;;;18.30;45.60;;;;;;5068258;28;20403;-72
2023/10/07 12:31:24;;;;;;;15.40;4.47;;;18.30;47.00;;;;;;5060402;28;20467;-72
2023/10/07 12:33:50;;;;;;;16.33;4.28;;;18.30;47.50;;;;;;5068883;28;20408;-72
2023/10/07 12:36:18;;;;;;;18.08;4.35;;;18.30;48.60;;;;;;5069057;28;20491;-72
2023/10/07 12:38:44;;;;;;;14.65;4.10;;;18.30;48.60;;;;;;5069407;28;20400;-71
2023/10/07 12:41:13;;;;;;;14.18;4.18;;;18.30;48.40;;;;;;5068886;28;20415;-71
2023/10/07 12:43:38;;;;;;;16.67;4.05;;;18.30;49.20;;;;;;5068848;28;20462;-71
2023/10/07 12:46:10;;;;;;;14.30;4.00;;;18.30;49.90;;;;;;5067784;28;20431;-71
2023/10/07 12:48:42;;;;;;;15.88;4.38;;;18.30;48.80;;;;;;5069199;28;20396;-72
2023/10/07 12:51:08;;;;;;;11.50;3.80;;;18.30;49.00;;;;;;5068785;28;20400;-72
2023/10/07 12:53:34;;;;;;;14.50;4.03;;;18.20;49.60;;;;;;5067973;28;20802;-72
2023/10/07 12:56:12;;;;;;;15.77;4.37;;;18.30;49.80;;;;;;5068941;28;20400;-72
2023/10/07 12:58:39;;;;;;;15.25;4.57;;;18.30;49.70;;;;;;5068695;28;20507;-73
2023/10/07 13:01:11;;;;;;;16.60;4.90;;;18.30;50.00;;;;;;5068775;28;20435;-72
2023/10/07 13:03:39;;;;;;;16.88;4.70;;;18.20;49.90;;;;;;5067915;28;21089;-71
2023/10/07 13:06:08;;;;;;;13.35;3.90;;;18.20;50.10;;;;;;5068039;28;20410;-72
2023/10/07 13:08:34;;;;;;;14.40;4.47;;;18.30;49.90;;;;;;5064616;28;21174;-72
2023/10/07 13:11:00;;;;;;;16.37;4.43;;;18.20;49.90;;;;;;5066390;28;20407;-72
2023/10/07 13:13:29;;;;;;;17.10;4.70;;;18.20;49.00;;;;;;5068975;28;20494;-72
2023/10/07 13:15:56;;;;;;;14.05;4.10;;;18.20;49.00;;;;;;5068338;28;20414;-72
2023/10/07 13:18:24;;;;;;;14.13;4.35;;;18.20;49.00;;;;;;5068622;28;20414;-72
2023/10/07 13:20:49;;;;;;;12.73;4.10;;;18.20;49.40;;;;;;5068092;28;20407;-72
2023/10/07 13:23:15;;;;;;;14.48;4.18;;;18.20;49.60;;;;;;5060206;28;20456;-72
2023/10/07 13:25:45;;;;;;;15.30;4.22;;;18.10;49.40;;;;;;5067141;28;20407;-72
2023/10/07 13:28:15;;;;;;;17.95;4.15;;;18.10;49.70;;;;;;5064728;28;20547;-73
2023/10/07 13:30:42;;;;;;;14.93;4.00;;;18.10;50.40;;;;;;5062800;28;21007;-72
2023/10/07 13:33:08;;;;;;;12.77;4.33;;;18.10;50.70;;;;;;5066321;28;20415;-72
2023/10/07 13:35:33;;;;;;;14.30;4.13;;;18.10;50.90;;;;;;5067518;28;20579;-72
2023/10/07 13:38:00;;;;;;;13.57;4.00;;;18.00;50.10;;;;;;5065157;28;20862;-73
2023/10/07 13:40:29;;;;;;;12.43;4.18;;;18.00;50.70;;;;;;5067510;28;20778;-72
2023/10/07 13:42:55;;;;;;;12.40;3.97;;;18.10;50.30;;;;;;5055904;28;20511;-72
2023/10/07 13:45:23;;;;;;;14.55;4.25;;;18.10;49.50;;;;;;5065652;28;20462;-72
2023/10/07 13:47:53;;;;;;;14.90;3.92;;;18.10;49.70;;;;;;5062285;28;20416;-72
2023/10/07 13:50:27;;;;;;;12.48;4.20;;;18.10;50.10;;;;;;5066715;28;20404;-74